Time;durP1;ratioP1;P1;durP2;ratioP2;P2;SDS_P1;SDS_P2;PMS_P1;PMS_P2;Temp;Humidity;BMP_temperature;BMP_pressure;BME280_temperature;BME280_humidity;BME280_pressure;Samples;Min_cycle;Max_cycle;Signal;HPM_P1;HPM_P2
2021/10/25 00:00:04;;;;;;;9.60;6.70;;;6.40;99.90;;;;;;5035809;28;20154;-81
2021/10/25 00:02:30;;;;;;;6.30;5.33;;;6.20;99.90;;;;;;5036973;28;20177;-80
2021/10/25 00:04:55;;;;;;;7.50;5.33;;;6.20;99.90;;;;;;5035387;28;20400;-80
2021/10/25 00:07:21;;;;;;;7.87;5.30;;;5.80;99.90;;;;;;5039069;28;20193;-80
2021/10/25 00:09:47;;;;;;;10.40;5.40;;;5.80;99.90;;;;;;5033503;28;20166;-81
2021/10/25 00:12:13;;;;;;;7.67;5.33;;;5.80;99.90;;;;;;5032610;28;20687;-80
2021/10/25 00:14:40;;;;;;;6.40;4.73;;;5.60;99.90;;;;;;5033289;28;20180;-80
2021/10/25 00:17:06;;;;;;;6.73;5.00;;;5.50;99.90;;;;;;5033010;28;20216;-80
2021/10/25 00:19:32;;;;;;;8.10;4.80;;;5.40;99.90;;;;;;5033080;28;20427;-79
2021/10/25 00:21:58;;;;;;;10.47;6.63;;;5.40;99.90;;;;;;5032487;28;20463;-81
2021/10/25 00:24:24;;;;;;;6.10;5.10;;;5.80;99.90;;;;;;5032595;28;20400;-81
2021/10/25 00:26:49;;;;;;;6.40;5.33;;;6.00;99.90;;;;;;5033667;28;20193;-81
2021/10/25 00:29:15;;;;;;;7.57;6.10;;;6.30;99.90;;;;;;5033177;28;20233;-81
2021/10/25 00:31:41;;;;;;;7.53;4.80;;;6.40;99.90;;;;;;5032089;28;20193;-81
2021/10/25 00:34:07;;;;;;;8.40;5.83;;;6.40;99.90;;;;;;5048222;28;20273;-81
2021/10/25 00:36:33;;;;;;;5.23;4.80;;;6.40;99.90;;;;;;5032067;28;20224;-81
2021/10/25 00:38:58;;;;;;;10.97;5.90;;;6.40;99.90;;;;;;5033041;28;20181;-81
2021/10/25 00:41:24;;;;;;;6.17;4.57;;;6.40;99.90;;;;;;5032492;28;20165;-81
2021/10/25 00:43:50;;;;;;;8.27;5.20;;;6.50;99.90;;;;;;5032902;28;20185;-81
2021/10/25 00:46:16;;;;;;;5.37;4.90;;;6.50;99.90;;;;;;5032516;28;20165;-81
2021/10/25 00:48:42;;;;;;;13.83;5.63;;;6.40;99.90;;;;;;5032621;28;20412;-80
2021/10/25 00:51:10;;;;;;;5.63;5.03;;;6.40;99.90;;;;;;5031523;28;20197;-81
2021/10/25 00:53:37;;;;;;;6.23;5.17;;;6.40;99.90;;;;;;5032933;28;20420;-81
2021/10/25 00:56:06;;;;;;;5.30;4.80;;;6.30;99.90;;;;;;5032679;28;20403;-82
2021/10/25 00:58:32;;;;;;;5.27;4.67;;;6.10;99.90;;;;;;5032648;28;20400;-80
2021/10/25 01:00:58;;;;;;;8.73;6.40;;;6.00;99.90;;;;;;5033064;28;20468;-80
2021/10/25 01:03:24;;;;;;;7.23;6.17;;;6.00;99.90;;;;;;5032225;28;20419;-81
2021/10/25 01:05:50;;;;;;;6.17;5.50;;;5.90;99.90;;;;;;5032211;28;20389;-80
2021/10/25 01:08:16;;;;;;;5.80;5.20;;;5.70;99.90;;;;;;5032622;28;20397;-80
2021/10/25 01:10:43;;;;;;;6.80;4.50;;;5.50;99.90;;;;;;5031250;28;20521;-81
2021/10/25 01:13:10;;;;;;;5.27;4.87;;;4.70;99.90;;;;;;5032816;28;20396;-81
2021/10/25 01:15:36;;;;;;;5.07;4.23;;;4.30;99.90;;;;;;5032207;28;20392;-81
2021/10/25 01:18:02;;;;;;;8.93;5.40;;;4.30;99.90;;;;;;5032946;28;20371;-81
2021/10/25 01:20:30;;;;;;;7.93;5.30;;;4.30;99.90;;;;;;5047792;28;20161;-80
2021/10/25 01:22:58;;;;;;;6.90;6.17;;;4.30;99.90;;;;;;5047984;28;20390;-81
2021/10/25 01:25:24;;;;;;;8.33;4.03;;;4.40;99.90;;;;;;5032403;28;20396;-80
2021/10/25 01:27:50;;;;;;;5.20;4.70;;;4.40;99.90;;;;;;5032602;28;20397;-81
2021/10/25 01:30:17;;;;;;;5.77;4.87;;;4.40;99.90;;;;;;5032874;28;20454;-81
2021/10/25 01:32:45;;;;;;;7.67;5.30;;;4.30;99.90;;;;;;5034046;28;20440;-81
2021/10/25 01:35:11;;;;;;;16.00;5.30;;;4.30;99.90;;;;;;5033633;28;20393;-81
2021/10/25 01:37:37;;;;;;;6.50;4.90;;;4.40;99.90;;;;;;5031434;28;20448;-81
2021/10/25 01:40:06;;;;;;;6.13;4.73;;;4.20;99.90;;;;;;5031804;28;20397;-81
2021/10/25 01:42:32;;;;;;;4.97;4.57;;;4.10;99.90;;;;;;5032082;28;20403;-81
2021/10/25 01:44:58;;;;;;;6.87;3.80;;;4.00;99.90;;;;;;5030730;28;20409;-81
2021/10/25 01:47:24;;;;;;;4.70;4.17;;;3.90;99.90;;;;;;5032370;28;20499;-81
2021/10/25 01:49:50;;;;;;;4.43;4.03;;;3.70;99.90;;;;;;5032576;28;20404;-80
2021/10/25 01:52:16;;;;;;;6.03;3.37;;;3.50;99.90;;;;;;5031991;28;20201;-80
2021/10/25 01:54:43;;;;;;;13.17;5.03;;;3.50;99.90;;;;;;5032352;28;20424;-81
2021/10/25 01:57:09;;;;;;;14.83;3.83;;;3.50;99.90;;;;;;5031984;28;20408;-80
2021/10/25 01:59:36;;;;;;;6.80;4.50;;;3.50;99.90;;;;;;5030911;28;20431;-81
2021/10/25 02:02:02;;;;;;;11.70;4.97;;;3.40;99.90;;;;;;5030842;28;20424;-81
2021/10/25 02:04:29;;;;;;;6.07;3.27;;;3.40;99.90;;;;;;5031610;28;20869;-82
2021/10/25 02:06:55;;;;;;;7.57;4.70;;;3.30;99.90;;;;;;5031278;28;20388;-81
2021/10/25 02:09:21;;;;;;;9.93;4.97;;;3.30;99.90;;;;;;5030881;28;20386;-80
2021/10/25 02:11:47;;;;;;;6.80;4.07;;;3.30;99.90;;;;;;5029602;28;20213;-81
2021/10/25 02:14:14;;;;;;;5.43;4.60;;;3.20;99.90;;;;;;5031170;28;20388;-81
2021/10/25 02:16:41;;;;;;;5.63;4.20;;;3.20;99.90;;;;;;5047069;28;20428;-81
2021/10/25 02:19:07;;;;;;;6.33;4.53;;;3.30;99.90;;;;;;5031731;28;20405;-81
2021/10/25 02:21:34;;;;;;;4.60;4.17;;;3.30;99.90;;;;;;5031249;28;20783;-82
2021/10/25 02:24:00;;;;;;;7.27;4.53;;;3.40;99.90;;;;;;5031117;28;20917;-81
2021/10/25 02:26:26;;;;;;;7.60;4.03;;;3.50;99.90;;;;;;5030356;28;20412;-81
2021/10/25 02:28:52;;;;;;;5.17;3.70;;;3.50;99.90;;;;;;5030230;28;20464;-82
2021/10/25 02:31:18;;;;;;;8.87;4.43;;;3.40;99.90;;;;;;5030954;28;20217;-81
2021/10/25 02:33:47;;;;;;;5.27;4.60;;;3.50;99.90;;;;;;5050432;28;20442;-81
2021/10/25 02:36:13;;;;;;;8.27;5.47;;;3.50;99.90;;;;;;5050053;28;20471;-81
2021/10/25 02:38:39;;;;;;;4.93;3.90;;;3.40;99.90;;;;;;5035650;28;20408;-81
2021/10/25 02:41:07;;;;;;;5.60;5.10;;;3.40;99.90;;;;;;5032778;28;20166;-81
2021/10/25 02:43:34;;;;;;;4.47;4.17;;;3.20;99.90;;;;;;5031573;28;20400;-81
2021/10/25 02:46:00;;;;;;;4.43;4.03;;;3.20;99.90;;;;;;5030996;28;20367;-81
2021/10/25 02:48:26;;;;;;;6.20;4.43;;;3.10;99.90;;;;;;5031724;28;20408;-81
2021/10/25 02:50:53;;;;;;;5.67;3.50;;;3.00;99.90;;;;;;5048533;28;20153;-79
2021/10/25 02:53:21;;;;;;;11.27;3.33;;;2.70;99.90;;;;;;5038608;28;20392;-80
2021/10/25 02:55:47;;;;;;;6.10;3.37;;;2.60;99.90;;;;;;5054499;28;20519;-80
2021/10/25 02:58:14;;;;;;;4.13;3.70;;;2.60;99.90;;;;;;5038519;28;20404;-80
2021/10/25 03:00:40;;;;;;;3.83;3.47;;;2.70;99.90;;;;;;5038020;28;20400;-80
2021/10/25 03:03:06;;;;;;;9.27;4.40;;;2.70;99.90;;;;;;5038694;28;20436;-78
2021/10/25 03:05:33;;;;;;;4.27;3.87;;;2.40;99.90;;;;;;5038742;28;20404;-79
2021/10/25 03:07:58;;;;;;;6.27;4.00;;;2.30;99.90;;;;;;5038673;28;20415;-79
2021/10/25 03:10:24;;;;;;;7.13;4.50;;;2.20;99.90;;;;;;5038311;28;20424;-81
2021/10/25 03:12:50;;;;;;;5.50;3.40;;;2.20;99.90;;;;;;5030141;28;20228;-81
2021/10/25 03:15:17;;;;;;;3.63;3.43;;;2.10;99.90;;;;;;5035596;28;20468;-81
2021/10/25 03:17:44;;;;;;;4.13;2.80;;;2.10;99.90;;;;;;5034389;28;20456;-80
2021/10/25 03:20:12;;;;;;;3.30;2.70;;;1.80;99.90;;;;;;5029180;28;20375;-82
2021/10/25 03:22:38;;;;;;;5.30;3.63;;;1.80;99.90;;;;;;5030210;28;20927;-82
2021/10/25 03:25:05;;;;;;;5.17;4.67;;;1.90;99.90;;;;;;5029071;28;20393;-82
2021/10/25 03:27:31;;;;;;;7.63;4.60;;;2.00;99.90;;;;;;5030572;28;20741;-82
2021/10/25 03:29:57;;;;;;;5.90;4.70;;;2.00;99.90;;;;;;5008148;28;20440;-81
2021/10/25 03:32:23;;;;;;;4.87;4.13;;;2.20;99.90;;;;;;5014973;28;20472;-81
2021/10/25 03:34:49;;;;;;;5.00;3.00;;;2.10;99.90;;;;;;5014558;28;20409;-82
2021/10/25 03:37:17;;;;;;;7.97;4.00;;;2.10;99.90;;;;;;5009844;28;20436;-81
2021/10/25 03:39:46;;;;;;;3.93;3.53;;;2.20;99.90;;;;;;5009882;28;20409;-81
2021/10/25 03:42:22;;;;;;;8.10;4.97;;;2.10;99.90;;;;;;5008875;28;20467;-81
2021/10/25 03:44:54;;;;;;;3.37;3.00;;;2.20;99.90;;;;;;5006260;28;20437;-82
2021/10/25 03:47:25;;;;;;;3.53;3.20;;;2.20;99.90;;;;;;5020775;28;20519;-80
2021/10/25 03:49:56;;;;;;;5.37;4.40;;;2.20;99.90;;;;;;5036312;28;20443;-81
2021/10/25 03:52:32;;;;;;;3.67;3.20;;;2.20;99.90;;;;;;5036964;28;20503;-80
2021/10/25 03:55:12;;;;;;;3.63;3.33;;;2.30;99.90;;;;;;5036794;28;20503;-79
2021/10/25 04:00:41;;;;;;;6.30;4.10;;;2.30;99.90;;;;;;5017849;28;20429;-81
2021/10/25 04:03:40;;;;;;;6.37;3.20;;;2.20;99.90;;;;;;5018674;28;20424;-81
2021/10/25 04:27:26;;;;;;;3.80;3.43;;;2.60;99.90;;;;;;5009769;28;20401;-81
2021/10/25 04:30:00;;;;;;;7.10;5.10;;;2.60;99.90;;;;;;5010818;28;20368;-82
2021/10/25 04:32:26;;;;;;;5.40;4.83;;;2.50;99.90;;;;;;5008668;28;20448;-80
2021/10/25 04:34:52;;;;;;;5.90;4.10;;;2.50;99.90;;;;;;5009888;28;20389;-81
2021/10/25 04:37:18;;;;;;;11.90;5.00;;;2.60;99.90;;;;;;5010272;28;20233;-79
2021/10/25 04:39:44;;;;;;;6.77;4.37;;;2.80;99.90;;;;;;5010687;28;20162;-81
2021/10/25 04:42:12;;;;;;;6.13;4.47;;;3.30;99.90;;;;;;5006907;28;20172;-81
2021/10/25 04:44:38;;;;;;;4.73;4.27;;;3.60;99.90;;;;;;5006675;28;20171;-81
2021/10/25 04:47:04;;;;;;;15.90;5.90;;;3.80;99.90;;;;;;5007186;28;20380;-81
2021/10/25 04:49:30;;;;;;;8.07;6.33;;;4.00;99.90;;;;;;5006709;28;20170;-81
2021/10/25 04:51:55;;;;;;;5.87;4.93;;;4.20;99.90;;;;;;5006588;28;20263;-81
2021/10/25 04:54:21;;;;;;;8.00;5.80;;;4.20;99.90;;;;;;5006216;28;20163;-80
2021/10/25 04:56:47;;;;;;;7.37;5.80;;;4.20;99.90;;;;;;5005129;28;20167;-80
2021/10/25 04:59:13;;;;;;;4.10;3.73;;;4.20;99.90;;;;;;5005955;28;20477;-80
2021/10/25 05:01:39;;;;;;;7.53;5.27;;;4.30;99.90;;;;;;5005472;28;20177;-80
2021/10/25 05:04:04;;;;;;;17.53;6.73;;;4.30;99.90;;;;;;5013737;28;20185;-80
2021/10/25 05:06:30;;;;;;;9.83;6.37;;;4.30;99.90;;;;;;5026366;28;20169;-80
2021/10/25 05:08:56;;;;;;;6.43;5.83;;;4.30;99.90;;;;;;5026028;28;20189;-80
2021/10/25 05:11:25;;;;;;;6.20;5.03;;;4.20;99.90;;;;;;5017791;28;20232;-81
2021/10/25 05:13:50;;;;;;;4.47;4.10;;;4.20;99.90;;;;;;5023657;28;20231;-81
2021/10/25 05:16:16;;;;;;;11.23;6.10;;;4.20;99.90;;;;;;5025984;28;20397;-79
2021/10/25 05:18:42;;;;;;;7.53;5.27;;;3.80;99.90;;;;;;5024076;28;20165;-81
2021/10/25 05:21:08;;;;;;;10.57;5.60;;;3.60;99.90;;;;;;5024745;28;20512;-81
2021/10/25 05:23:34;;;;;;;7.47;6.80;;;3.70;99.90;;;;;;5025904;28;20498;-81
2021/10/25 05:26:00;;;;;;;7.37;6.00;;;3.70;99.90;;;;;;5026322;28;20184;-81
2021/10/25 05:28:26;;;;;;;7.23;5.73;;;3.60;99.90;;;;;;5025501;28;20212;-81
2021/10/25 05:30:52;;;;;;;15.53;7.27;;;3.50;99.90;;;;;;5026123;28;20165;-81
2021/10/25 05:33:18;;;;;;;6.60;5.17;;;3.40;99.90;;;;;;5026189;28;20791;-81
2021/10/25 05:35:43;;;;;;;4.77;4.23;;;3.00;99.90;;;;;;5040380;28;20396;-81
2021/10/25 05:38:11;;;;;;;7.00;5.07;;;2.60;99.90;;;;;;5050768;28;20168;-81
2021/10/25 05:40:38;;;;;;;10.83;4.80;;;2.20;99.90;;;;;;5049848;28;20217;-81
2021/10/25 05:43:04;;;;;;;5.63;5.00;;;2.40;99.90;;;;;;5023788;28;20424;-82
2021/10/25 05:45:31;;;;;;;6.13;4.33;;;2.20;99.90;;;;;;5023702;28;20837;-81
2021/10/25 05:47:57;;;;;;;12.40;6.50;;;2.10;99.90;;;;;;5023878;28;20757;-82
2021/10/25 05:50:23;;;;;;;8.77;6.20;;;1.90;99.90;;;;;;5031400;28;20411;-82
2021/10/25 05:52:49;;;;;;;11.30;5.57;;;2.00;99.90;;;;;;5041112;28;20204;-82
2021/10/25 05:55:21;;;;;;;10.00;5.60;;;2.00;99.90;;;;;;5032825;28;20154;-82
2021/10/25 05:57:48;;;;;;;9.70;5.20;;;2.10;99.90;;;;;;5037409;28;20253;-81
2021/10/25 06:00:15;;;;;;;5.13;4.63;;;2.00;99.90;;;;;;5037175;28;20395;-81
2021/10/25 06:02:51;;;;;;;11.80;6.03;;;1.80;99.90;;;;;;5037906;28;20415;-81
2021/10/25 06:05:17;;;;;;;4.93;4.50;;;1.70;99.90;;;;;;5035075;28;20424;-82
2021/10/25 06:07:43;;;;;;;5.80;5.27;;;1.80;99.90;;;;;;5035602;28;20431;-79
2021/10/25 06:10:13;;;;;;;9.20;5.10;;;1.90;99.90;;;;;;5034978;28;20459;-78
2021/10/25 06:12:41;;;;;;;9.43;5.60;;;2.20;99.90;;;;;;5046426;28;20446;-79
2021/10/25 06:15:15;;;;;;;10.80;6.20;;;2.50;99.90;;;;;;5031575;28;20487;-79
2021/10/25 06:17:51;;;;;;;7.60;5.37;;;2.50;99.90;;;;;;5028464;28;20458;-79
2021/10/25 06:20:20;;;;;;;6.60;5.80;;;2.50;99.90;;;;;;5031563;28;20424;-81
2021/10/25 06:22:46;;;;;;;6.70;5.23;;;2.50;99.90;;;;;;5026005;28;20523;-80
2021/10/25 06:25:13;;;;;;;6.50;5.80;;;2.60;99.90;;;;;;5019627;28;20444;-78
2021/10/25 06:27:41;;;;;;;7.03;6.40;;;2.40;99.90;;;;;;5000236;28;20432;-79
2021/10/25 06:30:08;;;;;;;5.70;4.57;;;2.50;99.90;;;;;;4998085;28;20437;-79
2021/10/25 06:32:34;;;;;;;5.70;5.10;;;2.60;99.90;;;;;;5007063;28;20434;-78
2021/10/25 06:35:04;;;;;;;7.30;6.33;;;2.50;99.90;;;;;;5017304;28;20503;-78
2021/10/25 06:37:50;;;;;;;7.27;5.80;;;2.60;99.90;;;;;;5034120;28;20450;-80
2021/10/25 06:40:17;;;;;;;10.50;5.47;;;2.70;99.90;;;;;;5017908;28;20432;-79
2021/10/25 06:42:44;;;;;;;6.00;5.23;;;2.50;99.90;;;;;;5014731;28;20507;-80
2021/10/25 06:45:14;;;;;;;7.30;5.20;;;2.50;99.90;;;;;;5024703;28;20407;-79
2021/10/25 06:47:41;;;;;;;15.80;6.50;;;2.40;99.90;;;;;;5011258;28;20522;-79
2021/10/25 06:50:07;;;;;;;4.43;4.03;;;2.40;99.90;;;;;;5016884;28;20497;-80
2021/10/25 06:52:33;;;;;;;11.27;8.70;;;2.50;99.90;;;;;;4995161;28;20483;-79
2021/10/25 06:55:00;;;;;;;18.63;8.77;;;2.70;99.90;;;;;;5009380;28;20436;-79
2021/10/25 06:57:26;;;;;;;12.10;7.60;;;2.80;99.90;;;;;;5015707;28;20941;-79
2021/10/25 06:59:52;;;;;;;11.57;7.03;;;3.10;99.90;;;;;;5019330;28;20788;-78
2021/10/25 07:02:19;;;;;;;11.13;8.10;;;3.10;99.90;;;;;;5029842;28;20433;-79
2021/10/25 07:04:47;;;;;;;11.00;7.50;;;3.50;99.90;;;;;;5010108;28;20431;-79
2021/10/25 07:07:13;;;;;;;11.33;7.47;;;3.40;99.90;;;;;;5013652;28;20467;-79
2021/10/25 07:09:39;;;;;;;9.33;6.53;;;3.50;99.90;;;;;;5019301;28;20443;-79
2021/10/25 07:12:06;;;;;;;17.10;8.00;;;3.70;99.90;;;;;;4998769;28;20962;-79
2021/10/25 07:14:36;;;;;;;10.87;7.57;;;4.10;99.90;;;;;;5014247;28;20447;-80
2021/10/25 07:17:35;;;;;;;10.57;7.10;;;4.40;99.90;;;;;;4993139;28;20426;-79
2021/10/25 07:20:08;;;;;;;8.37;5.90;;;4.60;99.90;;;;;;5003114;28;20515;-80
2021/10/25 07:22:56;;;;;;;11.80;7.30;;;4.80;99.90;;;;;;5009966;28;20459;-80
2021/10/25 07:59:18;;;;;;;13.70;8.80;;;4.80;99.90;;;;;;5016297;28;20451;-79
2021/10/25 08:00:39;;;;;;;8.10;6.80;;;3.10;99.90;;;;;;5011109;28;20483;-79
2021/10/25 08:03:26;;;;;;;6.03;5.03;;;3.40;99.90;;;;;;5012412;28;20471;-79
2021/10/25 08:05:54;;;;;;;9.27;7.10;;;3.60;99.90;;;;;;5021105;28;20447;-79
2021/10/25 08:08:38;;;;;;;17.70;7.07;;;3.80;99.90;;;;;;5022252;28;20431;-79
2021/10/25 08:11:06;;;;;;;8.53;6.60;;;3.90;99.90;;;;;;5021083;28;20808;-78
2021/10/25 08:13:37;;;;;;;10.90;5.50;;;3.80;99.90;;;;;;5004993;28;20432;-79
2021/10/25 08:19:07;;;;;;;15.93;6.83;;;4.20;99.90;;;;;;5019998;28;20421;-80
2021/10/25 08:21:30;;;;;;;11.00;6.53;;;4.20;99.90;;;;;;5005199;28;20460;-79
2021/10/25 08:23:56;;;;;;;9.70;6.63;;;5.30;99.90;;;;;;4988370;28;20428;-79
2021/10/25 08:26:25;;;;;;;11.30;6.80;;;5.90;99.90;;;;;;4989401;28;20443;-80
2021/10/25 08:28:52;;;;;;;9.57;7.13;;;6.60;99.90;;;;;;5006017;28;22124;-78
2021/10/25 08:31:18;;;;;;;6.73;5.97;;;6.90;99.90;;;;;;5002242;28;20481;-79
2021/10/25 08:34:01;;;;;;;14.03;5.40;;;6.10;99.90;;;;;;5017941;28;20932;-79
2021/10/25 08:39:47;;;;;;;8.10;6.90;;;5.70;99.90;;;;;;4999749;28;21002;-80
2021/10/25 08:41:56;;;;;;;6.37;5.70;;;6.80;99.90;;;;;;5009735;28;20955;-79
2021/10/25 08:44:22;;;;;;;9.63;7.10;;;6.90;99.90;;;;;;4988516;28;20446;-79
2021/10/25 08:46:54;;;;;;;8.70;7.00;;;7.40;99.90;;;;;;4984839;28;20443;-80
2021/10/25 08:49:20;;;;;;;8.23;6.60;;;7.90;99.90;;;;;;5019364;28;20398;-80
2021/10/25 08:51:46;;;;;;;12.33;6.50;;;8.50;99.90;;;;;;5008117;28;20464;-79
2021/10/25 08:54:12;;;;;;;56.87;51.80;;;7.80;99.90;;;;;;5021336;28;20518;-80
2021/10/25 08:56:40;;;;;;;9.50;6.60;;;6.80;99.90;;;;;;5008412;28;20511;-80
2021/10/25 08:59:05;;;;;;;12.60;6.00;;;6.70;99.90;;;;;;5022050;28;20189;-79
2021/10/25 09:01:32;;;;;;;13.17;7.37;;;6.10;99.90;;;;;;5036962;28;20444;-80
2021/10/25 09:04:05;;;;;;;8.40;7.50;;;6.70;99.90;;;;;;5021987;28;20204;-80
2021/10/25 09:06:31;;;;;;;9.30;6.27;;;7.30;99.90;;;;;;5016510;28;20868;-79
2021/10/25 09:09:00;;;;;;;9.40;6.77;;;7.40;99.90;;;;;;5022553;28;20443;-80
2021/10/25 09:11:28;;;;;;;8.37;6.60;;;8.20;99.90;;;;;;5024986;28;20477;-80
2021/10/25 09:13:54;;;;;;;9.93;6.77;;;8.60;99.90;;;;;;5025021;28;20423;-79
2021/10/25 09:16:21;;;;;;;6.37;5.30;;;7.40;99.90;;;;;;5024741;28;20435;-78
2021/10/25 09:18:48;;;;;;;7.20;5.97;;;7.60;99.90;;;;;;5019574;28;20469;-79
2021/10/25 09:21:14;;;;;;;8.03;7.20;;;9.00;99.90;;;;;;5019551;28;20940;-80
2021/10/25 09:24:01;;;;;;;12.83;6.40;;;9.00;99.90;;;;;;5005355;28;20433;-80
2021/10/25 09:26:31;;;;;;;9.40;6.20;;;8.00;99.90;;;;;;5006772;28;20552;-82
2021/10/25 09:29:03;;;;;;;11.00;7.20;;;8.20;99.90;;;;;;5004720;28;20424;-81
2021/10/25 09:31:34;;;;;;;9.37;5.77;;;8.60;99.90;;;;;;4996942;28;20495;-82
2021/10/25 09:34:05;;;;;;;7.43;5.93;;;8.60;99.90;;;;;;4991270;28;20437;-79
2021/10/25 09:36:37;;;;;;;10.07;6.73;;;9.20;99.90;;;;;;4985373;28;20473;-79
2021/10/25 09:39:14;;;;;;;7.80;6.60;;;8.50;99.90;;;;;;4983412;28;20553;-82
2021/10/25 09:41:53;;;;;;;10.80;6.40;;;8.10;99.90;;;;;;4977999;28;20504;-82
2021/10/25 09:49:50;;;;;;;7.30;5.87;;;8.50;99.90;;;;;;4979230;28;20441;-82
2021/10/25 09:52:16;;;;;;;9.93;5.97;;;7.90;99.90;;;;;;4978194;28;20537;-81
2021/10/25 09:54:43;;;;;;;6.37;5.77;;;7.60;99.90;;;;;;4963825;28;20461;-81
2021/10/25 09:57:23;;;;;;;13.50;7.07;;;8.10;99.90;;;;;;4985154;28;20448;-80
2021/10/25 09:59:54;;;;;;;12.57;7.33;;;7.90;99.90;;;;;;4978701;28;20797;-79
2021/10/25 10:02:22;;;;;;;6.60;6.00;;;8.30;99.90;;;;;;4980847;28;20432;-80
2021/10/25 10:04:59;;;;;;;9.80;8.20;;;8.90;99.90;;;;;;4961411;28;20433;-82
2021/10/25 10:07:27;;;;;;;7.80;6.10;;;9.40;99.90;;;;;;5000120;28;20581;-80
2021/10/25 10:09:55;;;;;;;7.97;6.70;;;9.20;99.90;;;;;;5020613;28;20435;-80
2021/10/25 10:12:23;;;;;;;8.20;7.13;;;9.60;99.90;;;;;;5023176;28;21033;-81
2021/10/25 10:14:52;;;;;;;10.90;6.20;;;9.80;99.90;;;;;;5006201;28;20440;-80
2021/10/25 10:17:42;;;;;;;11.50;6.90;;;9.90;99.90;;;;;;5021804;28;20526;-81
2021/10/25 10:20:13;;;;;;;7.60;6.80;;;9.60;99.90;;;;;;5024639;28;20505;-80
2021/10/25 10:22:45;;;;;;;12.33;6.27;;;10.00;99.90;;;;;;5024502;28;20512;-81
2021/10/25 10:25:11;;;;;;;13.93;7.53;;;10.10;99.90;;;;;;5025393;28;20467;-81
2021/10/25 10:27:38;;;;;;;19.13;7.67;;;10.40;99.90;;;;;;5021121;28;20441;-81
2021/10/25 10:30:10;;;;;;;9.13;7.87;;;10.70;99.90;;;;;;5019188;28;20432;-81
2021/10/25 10:32:36;;;;;;;10.80;6.97;;;10.70;99.90;;;;;;5026407;28;20829;-80
2021/10/25 10:35:07;;;;;;;15.53;8.10;;;10.70;99.90;;;;;;5026214;28;20459;-81
2021/10/25 10:37:36;;;;;;;11.40;9.70;;;11.00;99.90;;;;;;5019072;28;20479;-78
2021/10/25 10:40:18;;;;;;;11.73;8.80;;;11.00;99.90;;;;;;5026175;28;20420;-80
2021/10/25 10:42:52;;;;;;;9.63;7.20;;;10.40;99.90;;;;;;5034778;28;20428;-81
2021/10/25 10:45:21;;;;;;;10.37;8.17;;;11.40;99.90;;;;;;5026944;28;20551;-80
2021/10/25 10:47:59;;;;;;;12.43;7.80;;;11.90;99.90;;;;;;5031459;28;20444;-79
2021/10/25 10:50:35;;;;;;;14.07;8.00;;;13.10;99.90;;;;;;5033603;28;20447;-81
2021/10/25 10:53:09;;;;;;;10.73;7.57;;;12.80;99.90;;;;;;5034185;28;20479;-79
2021/10/25 10:55:39;;;;;;;9.40;7.17;;;12.70;99.90;;;;;;5033768;28;20463;-80
2021/10/25 11:01:10;;;;;;;15.37;9.57;;;14.00;99.90;;;;;;5046074;28;20463;-80
2021/10/25 11:03:36;;;;;;;9.57;7.73;;;14.40;99.90;;;;;;5033450;28;20754;-81
2021/10/25 11:06:10;;;;;;;11.20;7.70;;;15.20;99.90;;;;;;5032243;28;20471;-80
2021/10/25 11:08:41;;;;;;;12.50;8.27;;;14.90;99.90;;;;;;4997896;28;20900;-80
2021/10/25 11:11:18;;;;;;;11.03;7.30;;;13.80;99.90;;;;;;5002305;28;20455;-80
2021/10/25 11:13:50;;;;;;;11.60;7.50;;;14.90;99.90;;;;;;4984582;28;20554;-82
2021/10/25 11:16:33;;;;;;;13.23;8.43;;;14.80;99.90;;;;;;5003251;28;20436;-79
2021/10/25 11:19:04;;;;;;;9.53;8.53;;;14.90;99.90;;;;;;5002351;28;20440;-80
2021/10/25 11:21:37;;;;;;;8.93;6.33;;;15.00;99.90;;;;;;4969673;28;20461;-81
2021/10/25 11:24:10;;;;;;;13.77;7.80;;;13.80;99.90;;;;;;4986992;28;20872;-79
2021/10/25 11:26:54;;;;;;;7.27;6.57;;;13.70;99.90;;;;;;4994792;28;20432;-80
2021/10/25 11:29:28;;;;;;;10.03;7.20;;;15.30;99.90;;;;;;5002906;28;20413;-81
2021/10/25 11:31:58;;;;;;;8.70;7.17;;;16.80;99.90;;;;;;4984975;28;21022;-81
2021/10/25 11:34:32;;;;;;;13.30;7.17;;;17.20;99.90;;;;;;5002811;28;20500;-81
2021/10/25 11:37:04;;;;;;;8.40;7.27;;;15.50;99.90;;;;;;4981071;28;20503;-80
2021/10/25 11:39:36;;;;;;;11.73;7.67;;;16.20;99.90;;;;;;5004800;28;20423;-80
2021/10/25 11:42:05;;;;;;;7.73;7.00;;;16.60;99.90;;;;;;5020261;28;20439;-80
2021/10/25 11:44:32;;;;;;;8.10;7.27;;;17.90;99.90;;;;;;5027043;28;20440;-80
2021/10/25 11:46:58;;;;;;;8.63;7.60;;;17.40;99.90;;;;;;5022444;28;20771;-80
2021/10/25 11:49:27;;;;;;;8.33;7.53;;;17.80;99.90;;;;;;5029501;28;20527;-80
2021/10/25 11:51:55;;;;;;;8.47;7.30;;;17.90;99.90;;;;;;4999670;28;20817;-80
2021/10/25 11:54:24;;;;;;;7.87;7.17;;;17.90;99.90;;;;;;5012805;28;20443;-81
2021/10/25 11:56:53;;;;;;;7.50;6.70;;;17.30;99.90;;;;;;5025732;28;20440;-80
2021/10/25 11:59:21;;;;;;;8.13;7.17;;;18.20;99.90;;;;;;5026871;28;20509;-79
2021/10/25 12:01:48;;;;;;;7.37;6.70;;;17.10;99.90;;;;;;5026701;28;20435;-80
2021/10/25 12:04:16;;;;;;;8.83;8.03;;;18.90;99.90;;;;;;5026114;28;20470;-77
2021/10/25 12:06:53;;;;;;;10.00;7.27;;;18.30;99.90;;;;;;5019965;28;20420;-81
2021/10/25 12:09:21;;;;;;;9.57;8.23;;;17.80;99.90;;;;;;5021509;28;20474;-80
2021/10/25 12:12:13;;;;;;;8.10;7.30;;;17.10;99.90;;;;;;5043865;28;20489;-79
2021/10/25 12:14:44;;;;;;;7.47;6.70;;;18.80;99.90;;;;;;4963655;28;20447;-78
2021/10/25 12:17:18;;;;;;;6.97;6.27;;;17.60;99.90;;;;;;5025583;28;20442;-78
2021/10/25 12:19:57;;;;;;;11.33;7.50;;;18.70;99.90;;;;;;4968138;28;20464;-79
2021/10/25 12:22:25;;;;;;;7.13;6.53;;;19.90;99.90;;;;;;4991651;28;20494;-79
2021/10/25 12:24:55;;;;;;;10.40;8.90;;;19.10;99.90;;;;;;4971478;28;20517;-78
2021/10/25 12:27:26;;;;;;;8.23;7.13;;;18.80;99.90;;;;;;4978956;28;20472;-79
2021/10/25 12:30:03;;;;;;;8.80;7.27;;;18.30;99.90;;;;;;4981628;28;20443;-79
2021/10/25 12:32:28;;;;;;;7.50;6.80;;;17.20;99.90;;;;;;5006013;28;20547;-80
2021/10/25 12:34:57;;;;;;;7.00;6.40;;;19.10;99.90;;;;;;4988937;28;20519;-79
2021/10/25 12:37:27;;;;;;;9.40;7.37;;;18.70;99.90;;;;;;4992276;28;20695;-80
2021/10/25 12:39:56;;;;;;;8.70;7.73;;;19.20;99.90;;;;;;5000251;28;20435;-80
2021/10/25 12:42:23;;;;;;;7.40;6.73;;;19.40;99.90;;;;;;4992956;28;20448;-80
2021/10/25 12:44:54;;;;;;;7.27;6.10;;;20.00;99.90;;;;;;4976449;28;20437;-80
2021/10/25 12:47:26;;;;;;;6.43;5.80;;;20.50;99.90;;;;;;4978669;28;20498;-80
2021/10/25 12:49:56;;;;;;;7.70;6.93;;;19.90;99.90;;;;;;4972689;28;20977;-80
2021/10/25 12:52:27;;;;;;;10.07;5.80;;;18.70;99.90;;;;;;4972805;28;20550;-79
2021/10/25 12:54:59;;;;;;;7.40;6.50;;;19.70;99.90;;;;;;4956181;28;20433;-81
2021/10/25 12:57:29;;;;;;;7.33;6.73;;;20.20;99.90;;;;;;4951805;29;20501;-79
2021/10/25 13:00:09;;;;;;;8.43;6.80;;;19.90;99.90;;;;;;4943463;29;20477;-80
2021/10/25 13:02:44;;;;;;;7.80;6.10;;;18.80;99.90;;;;;;4964681;28;20462;-79
2021/10/25 13:05:16;;;;;;;6.63;6.03;;;17.60;99.90;;;;;;4991822;28;20874;-80
2021/10/25 13:08:09;;;;;;;10.70;7.03;;;17.90;99.90;;;;;;4987597;28;20829;-81
2021/10/25 13:11:15;;;;;;;6.53;5.93;;;19.00;99.90;;;;;;4957545;28;20457;-81
2021/10/25 13:13:48;;;;;;;9.13;6.23;;;18.40;99.90;;;;;;4922854;29;20439;-80
2021/10/25 13:16:17;;;;;;;5.40;4.90;;;19.50;99.90;;;;;;4912699;29;20428;-79
2021/10/25 13:18:45;;;;;;;9.30;6.07;;;18.70;99.90;;;;;;4943382;29;20467;-80
2021/10/25 13:21:11;;;;;;;6.57;5.97;;;17.50;99.90;;;;;;4934335;29;20451;-81
2021/10/25 13:23:38;;;;;;;9.77;5.60;;;17.40;99.90;;;;;;4934643;29;20905;-80
2021/10/25 13:26:04;;;;;;;5.87;5.20;;;17.00;99.90;;;;;;4936439;29;20196;-81
2021/10/25 13:28:30;;;;;;;12.33;5.67;;;18.00;99.90;;;;;;4921105;29;20519;-81
2021/10/25 13:30:56;;;;;;;10.40;5.83;;;17.70;99.90;;;;;;4933766;29;20433;-79
2021/10/25 13:33:29;;;;;;;10.27;7.27;;;18.60;99.90;;;;;;4917615;29;20449;-80
2021/10/25 13:35:54;;;;;;;6.63;5.93;;;17.30;99.90;;;;;;4911205;29;20219;-80
2021/10/25 13:38:21;;;;;;;21.13;19.43;;;17.30;99.90;;;;;;4931170;29;20449;-80
2021/10/25 13:40:50;;;;;;;6.22;5.63;;;17.40;99.90;;;;;;4934385;28;20608;-81
2021/10/25 13:43:17;;;;;;;10.07;6.30;;;17.20;99.90;;;;;;5013183;28;20189;-80
2021/10/25 13:45:43;;;;;;;11.50;6.67;;;16.50;99.90;;;;;;4970062;28;20564;-81
2021/10/25 13:48:09;;;;;;;5.77;5.27;;;16.50;99.90;;;;;;4975125;28;20481;-78
2021/10/25 13:50:35;;;;;;;10.23;7.30;;;16.70;99.90;;;;;;4987147;28;20437;-79
2021/10/25 13:53:01;;;;;;;9.07;6.20;;;17.20;99.90;;;;;;4980899;28;20219;-81
2021/10/25 13:55:27;;;;;;;9.80;6.40;;;17.00;99.90;;;;;;4966027;28;20190;-79
2021/10/25 13:57:54;;;;;;;14.97;7.80;;;16.10;99.90;;;;;;4977642;28;20521;-79
2021/10/25 14:00:20;;;;;;;9.03;6.53;;;16.20;99.90;;;;;;4980389;28;20193;-80
2021/10/25 14:02:49;;;;;;;8.60;5.80;;;16.30;99.90;;;;;;4968190;28;20476;-79
2021/10/25 14:05:18;;;;;;;16.50;6.13;;;16.00;99.90;;;;;;4950672;28;21005;-80
2021/10/25 14:07:45;;;;;;;7.60;5.27;;;15.80;99.90;;;;;;4964998;28;20472;-79
2021/10/25 14:10:17;;;;;;;5.10;4.50;;;16.00;99.90;;;;;;4974891;28;20968;-81